sensor_id;sensor_type;location;lat;lon;timestamp;pressure;altitude;pressure_sealevel;temperature;humidity
43298;BME280;28892;55.640;37.532;2023-04-16T00:01:13;100244.56;;;5.68;26.74
43298;BME280;28892;55.640;37.532;2023-04-16T00:03:39;100247.34;;;5.55;26.82
43298;BME280;28892;55.640;37.532;2023-04-16T00:06:07;100240.56;;;5.53;26.95
43298;BME280;28892;55.640;37.532;2023-04-16T00:08:33;100257.47;;;5.39;26.80
43298;BME280;28892;55.640;37.532;2023-04-16T00:11:07;100247.50;;;5.54;26.89
43298;BME280;28892;55.640;37.532;2023-04-16T00:13:36;100247.09;;;5.70;26.67
43298;BME280;28892;55.640;37.532;2023-04-16T00:16:02;100239.97;;;5.49;27.01
43298;BME280;28892;55.640;37.532;2023-04-16T00:18:28;100253.97;;;5.38;26.86
43298;BME280;28892;55.640;37.532;2023-04-16T00:20:54;100256.38;;;5.30;27.10
43298;BME280;28892;55.640;37.532;2023-04-16T00:23:20;100244.94;;;5.31;27.15
43298;BME280;28892;55.640;37.532;2023-04-16T00:25:46;100246.13;;;5.15;27.39
43298;BME280;28892;55.640;37.532;2023-04-16T00:28:15;100253.66;;;5.09;27.66
43298;BME280;28892;55.640;37.532;2023-04-16T00:30:44;100250.78;;;4.66;28.13
43298;BME280;28892;55.640;37.532;2023-04-16T00:33:10;100252.59;;;5.00;27.77
43298;BME280;28892;55.640;37.532;2023-04-16T00:35:36;100251.50;;;4.91;27.95
43298;BME280;28892;55.640;37.532;2023-04-16T00:38:02;100252.34;;;5.14;27.66
43298;BME280;28892;55.640;37.532;2023-04-16T00:40:28;100257.94;;;5.32;27.40
43298;BME280;28892;55.640;37.532;2023-04-16T00:42:54;100249.59;;;5.27;27.47
43298;BME280;28892;55.640;37.532;2023-04-16T00:45:20;100243.50;;;5.15;27.43
43298;BME280;28892;55.640;37.532;2023-04-16T00:47:46;100264.16;;;5.31;27.57
43298;BME280;28892;55.640;37.532;2023-04-16T00:50:13;100250.38;;;5.39;27.72
43298;BME280;28892;55.640;37.532;2023-04-16T00:52:39;100248.31;;;5.54;27.20
43298;BME280;28892;55.640;37.532;2023-04-16T00:55:06;100248.84;;;5.37;27.69
43298;BME280;28892;55.640;37.532;2023-04-16T00:57:32;100246.59;;;5.32;27.59
43298;BME280;28892;55.640;37.532;2023-04-16T00:59:58;100257.06;;;5.55;27.27
43298;BME280;28892;55.640;37.532;2023-04-16T01:02:25;100241.03;;;5.58;27.26
43298;BME280;28892;55.640;37.532;2023-04-16T01:04:51;100240.59;;;5.74;27.03
43298;BME280;28892;55.640;37.532;2023-04-16T01:07:16;100249.50;;;5.94;26.94
43298;BME280;28892;55.640;37.532;2023-04-16T01:09:43;100244.81;;;5.98;26.99
43298;BME280;28892;55.640;37.532;2023-04-16T01:12:09;100244.56;;;6.01;26.99
43298;BME280;28892;55.640;37.532;2023-04-16T01:14:34;100260.00;;;6.06;27.23
43298;BME280;28892;55.640;37.532;2023-04-16T01:17:02;100250.19;;;6.08;26.97
43298;BME280;28892;55.640;37.532;2023-04-16T01:19:29;100260.75;;;6.08;27.35
43298;BME280;28892;55.640;37.532;2023-04-16T01:22:02;100243.38;;;6.05;27.12
43298;BME280;28892;55.640;37.532;2023-04-16T01:24:28;100251.88;;;6.09;26.93
43298;BME280;28892;55.640;37.532;2023-04-16T01:26:53;100253.47;;;6.21;26.76
43298;BME280;28892;55.640;37.532;2023-04-16T01:29:19;100251.22;;;6.17;26.62
43298;BME280;28892;55.640;37.532;2023-04-16T01:31:48;100248.00;;;6.13;26.56
43298;BME280;28892;55.640;37.532;2023-04-16T01:34:23;100242.03;;;6.11;26.81
43298;BME280;28892;55.640;37.532;2023-04-16T01:36:49;100245.06;;;6.06;26.60
43298;BME280;28892;55.640;37.532;2023-04-16T01:39:16;100251.34;;;6.15;26.71
43298;BME280;28892;55.640;37.532;2023-04-16T01:41:44;100243.22;;;6.07;26.52
43298;BME280;28892;55.640;37.532;2023-04-16T01:44:10;100242.53;;;6.05;26.66
43298;BME280;28892;55.640;37.532;2023-04-16T01:46:36;100248.91;;;6.02;26.78
43298;BME280;28892;55.640;37.532;2023-04-16T01:49:03;100244.81;;;5.98;26.57
43298;BME280;28892;55.640;37.532;2023-04-16T01:51:29;100243.25;;;5.95;26.81
43298;BME280;28892;55.640;37.532;2023-04-16T01:53:55;100243.66;;;5.91;27.02
43298;BME280;28892;55.640;37.532;2023-04-16T01:56:23;100243.56;;;5.81;26.71
43298;BME280;28892;55.640;37.532;2023-04-16T01:58:49;100245.63;;;5.77;27.21
43298;BME280;28892;55.640;37.532;2023-04-16T02:01:16;100247.44;;;5.77;26.77
43298;BME280;28892;55.640;37.532;2023-04-16T02:03:43;100251.47;;;5.81;27.01
43298;BME280;28892;55.640;37.532;2023-04-16T02:06:09;100261.03;;;5.82;27.14
43298;BME280;28892;55.640;37.532;2023-04-16T02:08:35;100254.81;;;5.83;26.92
43298;BME280;28892;55.640;37.532;2023-04-16T02:11:01;100247.91;;;5.70;27.21
43298;BME280;28892;55.640;37.532;2023-04-16T02:13:27;100254.38;;;5.78;27.01
43298;BME280;28892;55.640;37.532;2023-04-16T02:15:53;100248.03;;;5.69;27.09
43298;BME280;28892;55.640;37.532;2023-04-16T02:18:58;100252.47;;;5.68;27.38
43298;BME280;28892;55.640;37.532;2023-04-16T02:21:26;100253.31;;;5.57;27.43
43298;BME280;28892;55.640;37.532;2023-04-16T02:23:52;100253.25;;;5.48;27.66
43298;BME280;28892;55.640;37.532;2023-04-16T02:26:24;100264.00;;;5.56;27.55
43298;BME280;28892;55.640;37.532;2023-04-16T02:28:54;100254.31;;;5.45;27.59
43298;BME280;28892;55.640;37.532;2023-04-16T02:31:25;100251.78;;;5.87;27.07
43298;BME280;28892;55.640;37.532;2023-04-16T02:33:54;100246.91;;;5.50;27.68
43298;BME280;28892;55.640;37.532;2023-04-16T02:36:20;100246.09;;;5.38;27.93
43298;BME280;28892;55.640;37.532;2023-04-16T02:38:46;100243.81;;;5.34;27.95
43298;BME280;28892;55.640;37.532;2023-04-16T02:41:11;100243.47;;;5.27;28.01
43298;BME280;28892;55.640;37.532;2023-04-16T02:43:38;100251.97;;;5.30;28.22
43298;BME280;28892;55.640;37.532;2023-04-16T02:46:04;100258.19;;;5.29;27.90
43298;BME280;28892;55.640;37.532;2023-04-16T02:48:29;100255.44;;;5.20;28.19
43298;BME280;28892;55.640;37.532;2023-04-16T02:50:55;100251.72;;;5.22;28.48
43298;BME280;28892;55.640;37.532;2023-04-16T02:53:22;100249.69;;;5.37;27.91
43298;BME280;28892;55.640;37.532;2023-04-16T02:55:52;100263.69;;;5.38;28.03
43298;BME280;28892;55.640;37.532;2023-04-16T02:58:20;100248.63;;;5.28;28.47
43298;BME280;28892;55.640;37.532;2023-04-16T03:00:47;100262.94;;;5.36;28.58
43298;BME280;28892;55.640;37.532;2023-04-16T03:03:13;100258.91;;;5.20;28.62
43298;BME280;28892;55.640;37.532;2023-04-16T03:05:39;100251.03;;;5.20;28.83
43298;BME280;28892;55.640;37.532;2023-04-16T03:08:05;100260.59;;;5.21;28.56
43298;BME280;28892;55.640;37.532;2023-04-16T03:10:31;100259.78;;;5.21;28.41
43298;BME280;28892;55.640;37.532;2023-04-16T03:12:57;100261.81;;;5.17;28.89
43298;BME280;28892;55.640;37.532;2023-04-16T03:15:23;100261.06;;;5.26;28.67
43298;BME280;28892;55.640;37.532;2023-04-16T03:17:50;100274.34;;;5.25;28.88
43298;BME280;28892;55.640;37.532;2023-04-16T03:20:15;100264.06;;;5.22;28.70
43298;BME280;28892;55.640;37.532;2023-04-16T03:22:41;100265.84;;;5.21;28.81
43298;BME280;28892;55.640;37.532;2023-04-16T03:25:08;100276.84;;;5.26;28.80
43298;BME280;28892;55.640;37.532;2023-04-16T03:27:34;100266.44;;;5.25;28.83
43298;BME280;28892;55.640;37.532;2023-04-16T03:30:00;100263.22;;;5.21;28.91
43298;BME280;28892;55.640;37.532;2023-04-16T03:32:30;100266.34;;;5.26;28.71
43298;BME280;28892;55.640;37.532;2023-04-16T03:34:56;100271.59;;;5.26;28.97
43298;BME280;28892;55.640;37.532;2023-04-16T03:37:22;100264.75;;;5.35;28.85
43298;BME280;28892;55.640;37.532;2023-04-16T03:39:49;100259.59;;;5.34;28.48
43298;BME280;28892;55.640;37.532;2023-04-16T03:42:15;100258.66;;;5.35;28.94
43298;BME280;28892;55.640;37.532;2023-04-16T03:44:41;100262.72;;;5.39;28.95
43298;BME280;28892;55.640;37.532;2023-04-16T03:47:08;100263.44;;;5.41;29.01
43298;BME280;28892;55.640;37.532;2023-04-16T03:49:34;100271.56;;;5.49;29.05
43298;BME280;28892;55.640;37.532;2023-04-16T03:51:59;100270.72;;;5.49;28.84
43298;BME280;28892;55.640;37.532;2023-04-16T03:54:25;100277.19;;;5.44;28.99
43298;BME280;28892;55.640;37.532;2023-04-16T03:57:10;100272.72;;;5.56;28.73
43298;BME280;28892;55.640;37.532;2023-04-16T03:59:37;100271.28;;;5.64;28.92
43298;BME280;28892;55.640;37.532;2023-04-16T04:02:03;100266.13;;;5.62;28.95
43298;BME280;28892;55.640;37.532;2023-04-16T04:04:31;100270.53;;;5.73;28.40
43298;BME280;28892;55.640;37.532;2023-04-16T04:06:57;100260.44;;;5.78;28.31
43298;BME280;28892;55.640;37.532;2023-04-16T04:09:24;100265.56;;;5.91;28.20
43298;BME280;28892;55.640;37.532;2023-04-16T04:11:51;100255.97;;;5.90;28.41
43298;BME280;28892;55.640;37.532;2023-04-16T04:14:18;100259.06;;;5.95;28.00
43298;BME280;28892;55.640;37.532;2023-04-16T04:16:43;100259.06;;;5.95;27.97
43298;BME280;28892;55.640;37.532;2023-04-16T04:19:10;100268.63;;;6.08;28.21
43298;BME280;28892;55.640;37.532;2023-04-16T04:21:36;100268.22;;;6.24;27.50
43298;BME280;28892;55.640;37.532;2023-04-16T04:24:04;100269.41;;;6.20;27.95
43298;BME280;28892;55.640;37.532;2023-04-16T04:26:32;100271.38;;;6.27;27.98
43298;BME280;28892;55.640;37.532;2023-04-16T04:28:57;100267.63;;;6.20;27.73
43298;BME280;28892;55.640;37.532;2023-04-16T04:31:23;100253.09;;;6.26;28.20
43298;BME280;28892;55.640;37.532;2023-04-16T04:33:49;100259.44;;;6.45;27.65
43298;BME280;28892;55.640;37.532;2023-04-16T04:36:16;100262.34;;;6.41;27.85
43298;BME280;28892;55.640;37.532;2023-04-16T04:38:41;100257.13;;;6.30;27.76
43298;BME280;28892;55.640;37.532;2023-04-16T04:41:07;100266.72;;;6.52;28.07
43298;BME280;28892;55.640;37.532;2023-04-16T04:43:36;100275.75;;;6.60;27.15
43298;BME280;28892;55.640;37.532;2023-04-16T04:46:01;100266.19;;;6.90;27.39
43298;BME280;28892;55.640;37.532;2023-04-16T04:48:29;100258.44;;;7.29;27.12
43298;BME280;28892;55.640;37.532;2023-04-16T04:50:55;100259.03;;;7.62;26.16
43298;BME280;28892;55.640;37.532;2023-04-16T04:53:21;100265.56;;;7.58;25.58
43298;BME280;28892;55.640;37.532;2023-04-16T04:55:47;100261.78;;;7.00;25.59
43298;BME280;28892;55.640;37.532;2023-04-16T04:58:13;100258.47;;;6.98;25.47
43298;BME280;28892;55.640;37.532;2023-04-16T05:00:42;100271.63;;;7.39;25.16
43298;BME280;28892;55.640;37.532;2023-04-16T05:03:09;100256.56;;;7.10;25.14
43298;BME280;28892;55.640;37.532;2023-04-16T05:05:36;100265.75;;;7.16;25.05
43298;BME280;28892;55.640;37.532;2023-04-16T05:08:02;100268.75;;;7.62;24.91
43298;BME280;28892;55.640;37.532;2023-04-16T05:10:28;100252.50;;;7.66;24.80
43298;BME280;28892;55.640;37.532;2023-04-16T05:12:54;100253.75;;;7.72;24.72
43298;BME280;28892;55.640;37.532;2023-04-16T05:15:20;100271.00;;;7.86;24.69
43298;BME280;28892;55.640;37.532;2023-04-16T05:17:48;100267.63;;;7.45;24.69
43298;BME280;28892;55.640;37.532;2023-04-16T05:20:14;100257.25;;;7.73;24.87
43298;BME280;28892;55.640;37.532;2023-04-16T05:22:40;100264.91;;;7.95;24.47
43298;BME280;28892;55.640;37.532;2023-04-16T05:25:06;100254.25;;;7.36;24.67
43298;BME280;28892;55.640;37.532;2023-04-16T05:27:35;100249.59;;;7.60;24.62
43298;BME280;28892;55.640;37.532;2023-04-16T05:30:02;100263.91;;;7.67;24.73
43298;BME280;28892;55.640;37.532;2023-04-16T05:32:30;100265.88;;;7.14;24.94
43298;BME280;28892;55.640;37.532;2023-04-16T05:34:56;100262.50;;;7.63;24.62
43298;BME280;28892;55.640;37.532;2023-04-16T05:37:21;100265.59;;;7.88;24.64
43298;BME280;28892;55.640;37.532;2023-04-16T05:39:47;100254.59;;;7.82;24.50
43298;BME280;28892;55.640;37.532;2023-04-16T05:42:13;100243.69;;;8.45;24.30
43298;BME280;28892;55.640;37.532;2023-04-16T05:44:39;100247.31;;;9.01;23.21
43298;BME280;28892;55.640;37.532;2023-04-16T05:47:05;100240.56;;;9.53;23.06
43298;BME280;28892;55.640;37.532;2023-04-16T05:49:34;100248.06;;;9.40;22.47
43298;BME280;28892;55.640;37.532;2023-04-16T05:52:02;100248.59;;;9.43;22.48
43298;BME280;28892;55.640;37.532;2023-04-16T05:54:28;100244.63;;;10.20;22.73
43298;BME280;28892;55.640;37.532;2023-04-16T05:56:54;100245.00;;;10.70;21.65
43298;BME280;28892;55.640;37.532;2023-04-16T05:59:20;100246.47;;;10.64;21.66
43298;BME280;28892;55.640;37.532;2023-04-16T06:01:46;100238.47;;;10.11;22.01
43298;BME280;28892;55.640;37.532;2023-04-16T06:04:12;100242.25;;;10.09;22.24
43298;BME280;28892;55.640;37.532;2023-04-16T06:06:38;100249.72;;;10.58;21.51
43298;BME280;28892;55.640;37.532;2023-04-16T06:09:05;100237.81;;;10.97;21.21
43298;BME280;28892;55.640;37.532;2023-04-16T06:11:30;100240.31;;;10.98;21.84
43298;BME280;28892;55.640;37.532;2023-04-16T06:13:57;100252.66;;;11.16;21.13
43298;BME280;28892;55.640;37.532;2023-04-16T06:16:22;100254.06;;;11.45;20.61
43298;BME280;28892;55.640;37.532;2023-04-16T06:18:48;100253.56;;;11.41;20.68
43298;BME280;28892;55.640;37.532;2023-04-16T06:21:14;100257.25;;;11.49;21.01
43298;BME280;28892;55.640;37.532;2023-04-16T06:23:40;100253.09;;;11.54;20.81
43298;BME280;28892;55.640;37.532;2023-04-16T06:26:06;100241.66;;;11.62;20.51
43298;BME280;28892;55.640;37.532;2023-04-16T06:28:32;100248.63;;;10.95;20.84
43298;BME280;28892;55.640;37.532;2023-04-16T06:30:58;100251.31;;;10.24;21.28
43298;BME280;28892;55.640;37.532;2023-04-16T06:33:24;100245.06;;;10.33;21.67
43298;BME280;28892;55.640;37.532;2023-04-16T06:35:50;100262.19;;;10.39;21.69
43298;BME280;28892;55.640;37.532;2023-04-16T06:38:17;100264.16;;;10.37;21.49
43298;BME280;28892;55.640;37.532;2023-04-16T06:40:43;100250.50;;;10.76;21.00
43298;BME280;28892;55.640;37.532;2023-04-16T06:43:09;100252.94;;;11.04;20.74
43298;BME280;28892;55.640;37.532;2023-04-16T06:45:34;100251.88;;;11.24;20.51
43298;BME280;28892;55.640;37.532;2023-04-16T06:48:00;100236.69;;;11.59;20.36
43298;BME280;28892;55.640;37.532;2023-04-16T06:50:28;100248.59;;;11.38;20.32
43298;BME280;28892;55.640;37.532;2023-04-16T06:52:54;100244.72;;;10.81;20.67
43298;BME280;28892;55.640;37.532;2023-04-16T07:11:57;100219.06;;;11.74;20.43
43298;BME280;28892;55.640;37.532;2023-04-16T07:14:23;100228.38;;;11.95;20.25
43298;BME280;28892;55.640;37.532;2023-04-16T07:16:49;100237.22;;;12.12;19.71
43298;BME280;28892;55.640;37.532;2023-04-16T07:19:15;100240.53;;;12.23;19.31
43298;BME280;28892;55.640;37.532;2023-04-16T07:21:40;100224.56;;;12.39;19.07
43298;BME280;28892;55.640;37.532;2023-04-16T07:24:09;100221.75;;;11.91;19.16
43298;BME280;28892;55.640;37.532;2023-04-16T07:26:36;100237.91;;;12.06;18.74
43298;BME280;28892;55.640;37.532;2023-04-16T07:29:01;100234.72;;;11.94;18.72
43298;BME280;28892;55.640;37.532;2023-04-16T07:31:27;100236.19;;;11.88;18.64
43298;BME280;28892;55.640;37.532;2023-04-16T07:33:54;100239.88;;;11.96;18.29
43298;BME280;28892;55.640;37.532;2023-04-16T07:36:23;100233.06;;;12.01;19.08
43298;BME280;28892;55.640;37.532;2023-04-16T07:38:48;100230.44;;;12.10;18.52
43298;BME280;28892;55.640;37.532;2023-04-16T07:41:14;100214.28;;;11.95;18.60
43298;BME280;28892;55.640;37.532;2023-04-16T07:43:44;100230.56;;;12.00;18.35
43298;BME280;28892;55.640;37.532;2023-04-16T07:46:10;100215.44;;;12.00;18.45
43298;BME280;28892;55.640;37.532;2023-04-16T07:48:35;100216.09;;;12.27;18.88
43298;BME280;28892;55.640;37.532;2023-04-16T07:51:01;100213.97;;;12.06;18.52
43298;BME280;28892;55.640;37.532;2023-04-16T07:53:27;100217.28;;;12.17;18.87
43298;BME280;28892;55.640;37.532;2023-04-16T07:55:53;100215.34;;;12.75;18.44
43298;BME280;28892;55.640;37.532;2023-04-16T07:58:19;100207.47;;;12.90;18.31
43298;BME280;28892;55.640;37.532;2023-04-16T08:00:44;100202.28;;;12.49;19.05
43298;BME280;28892;55.640;37.532;2023-04-16T08:03:11;100207.25;;;12.52;18.78
43298;BME280;28892;55.640;37.532;2023-04-16T08:05:39;100198.41;;;12.51;18.39
43298;BME280;28892;55.640;37.532;2023-04-16T08:08:05;100197.75;;;12.49;18.17
43298;BME280;28892;55.640;37.532;2023-04-16T08:10:32;100204.38;;;12.62;17.76
43298;BME280;28892;55.640;37.532;2023-04-16T08:12:59;100204.31;;;11.97;18.77
43298;BME280;28892;55.640;37.532;2023-04-16T08:15:26;100195.66;;;12.20;18.53
43298;BME280;28892;55.640;37.532;2023-04-16T08:17:52;100194.97;;;12.91;16.75
43298;BME280;28892;55.640;37.532;2023-04-16T08:20:17;100205.22;;;13.65;17.24
43298;BME280;28892;55.640;37.532;2023-04-16T08:22:44;100204.53;;;13.87;17.44
43298;BME280;28892;55.640;37.532;2023-04-16T08:25:10;100185.88;;;14.40;16.73
43298;BME280;28892;55.640;37.532;2023-04-16T08:27:36;100188.97;;;13.20;17.59
43298;BME280;28892;55.640;37.532;2023-04-16T08:30:03;100196.25;;;13.58;17.63
43298;BME280;28892;55.640;37.532;2023-04-16T08:32:32;100185.13;;;13.78;17.44
43298;BME280;28892;55.640;37.532;2023-04-16T08:34:58;100189.56;;;14.69;17.31
43298;BME280;28892;55.640;37.532;2023-04-16T08:37:24;100179.09;;;15.19;16.06
43298;BME280;28892;55.640;37.532;2023-04-16T08:39:50;100172.84;;;15.12;15.80
43298;BME280;28892;55.640;37.532;2023-04-16T08:42:29;100180.75;;;13.62;17.07
43298;BME280;28892;55.640;37.532;2023-04-16T08:45:06;100172.31;;;13.96;17.49
43298;BME280;28892;55.640;37.532;2023-04-16T08:47:35;100168.28;;;14.91;17.18
43298;BME280;28892;55.640;37.532;2023-04-16T08:50:03;100174.28;;;14.48;17.13
43298;BME280;28892;55.640;37.532;2023-04-16T08:52:30;100175.09;;;15.52;17.09
43298;BME280;28892;55.640;37.532;2023-04-16T08:55:05;100158.59;;;15.70;16.06
43298;BME280;28892;55.640;37.532;2023-04-16T08:57:45;100173.63;;;14.91;16.31
43298;BME280;28892;55.640;37.532;2023-04-16T09:00:12;100160.63;;;13.27;17.37
43298;BME280;28892;55.640;37.532;2023-04-16T09:02:38;100159.38;;;13.15;18.08
43298;BME280;28892;55.640;37.532;2023-04-16T09:05:06;100155.81;;;13.54;17.52
43298;BME280;28892;55.640;37.532;2023-04-16T09:07:38;100142.53;;;14.38;17.06
43298;BME280;28892;55.640;37.532;2023-04-16T09:10:11;100158.47;;;15.35;16.83
43298;BME280;28892;55.640;37.532;2023-04-16T09:12:39;100163.22;;;15.83;16.31
43298;BME280;28892;55.640;37.532;2023-04-16T09:15:06;100153.53;;;16.04;15.79
43298;BME280;28892;55.640;37.532;2023-04-16T09:17:37;100148.81;;;15.34;16.55
43298;BME280;28892;55.640;37.532;2023-04-16T09:20:08;100158.09;;;15.38;16.88
43298;BME280;28892;55.640;37.532;2023-04-16T09:22:38;100161.69;;;14.42;17.22
43298;BME280;28892;55.640;37.532;2023-04-16T09:25:10;100156.25;;;14.20;17.07
43298;BME280;28892;55.640;37.532;2023-04-16T09:27:43;100156.03;;;14.66;17.07
43298;BME280;28892;55.640;37.532;2023-04-16T09:30:22;100160.66;;;14.73;17.25
43298;BME280;28892;55.640;37.532;2023-04-16T09:32:50;100162.19;;;14.97;16.90
43298;BME280;28892;55.640;37.532;2023-04-16T09:35:20;100139.06;;;15.26;16.79
43298;BME280;28892;55.640;37.532;2023-04-16T09:37:56;100149.72;;;15.41;16.47
43298;BME280;28892;55.640;37.532;2023-04-16T09:40:26;100145.44;;;15.25;16.68
43298;BME280;28892;55.640;37.532;2023-04-16T09:42:58;100159.75;;;15.83;16.36
43298;BME280;28892;55.640;37.532;2023-04-16T09:45:33;100153.28;;;15.12;16.56
43298;BME280;28892;55.640;37.532;2023-04-16T09:48:12;100151.03;;;14.93;16.69
43298;BME280;28892;55.640;37.532;2023-04-16T09:50:38;100152.19;;;14.54;17.15
43298;BME280;28892;55.640;37.532;2023-04-16T09:53:05;100144.84;;;15.08;16.44
43298;BME280;28892;55.640;37.532;2023-04-16T09:55:33;100127.06;;;14.48;16.83
43298;BME280;28892;55.640;37.532;2023-04-16T09:58:02;100165.53;;;14.24;17.55
43298;BME280;28892;55.640;37.532;2023-04-16T10:00:29;100149.31;;;14.41;17.29
43298;BME280;28892;55.640;37.532;2023-04-16T10:03:04;100137.09;;;15.57;17.17
43298;BME280;28892;55.640;37.532;2023-04-16T10:05:31;100133.75;;;16.33;15.93
43298;BME280;28892;55.640;37.532;2023-04-16T10:08:00;100134.72;;;17.23;15.11
43298;BME280;28892;55.640;37.532;2023-04-16T10:10:27;100143.22;;;17.81;14.50
43298;BME280;28892;55.640;37.532;2023-04-16T10:12:54;100137.84;;;18.08;14.31
43298;BME280;28892;55.640;37.532;2023-04-16T10:15:20;100129.38;;;18.11;14.14
43298;BME280;28892;55.640;37.532;2023-04-16T10:17:46;100129.56;;;18.02;13.97
43298;BME280;28892;55.640;37.532;2023-04-16T10:20:13;100117.84;;;17.36;13.96
43298;BME280;28892;55.640;37.532;2023-04-16T10:22:40;100112.47;;;17.56;14.70
43298;BME280;28892;55.640;37.532;2023-04-16T10:25:06;100115.16;;;17.50;13.93
43298;BME280;28892;55.640;37.532;2023-04-16T10:27:36;100134.41;;;16.07;15.11
43298;BME280;28892;55.640;37.532;2023-04-16T10:30:07;100121.66;;;16.44;14.78
43298;BME280;28892;55.640;37.532;2023-04-16T10:32:33;100097.94;;;15.99;14.95
43298;BME280;28892;55.640;37.532;2023-04-16T10:35:01;100109.91;;;15.09;15.61
43298;BME280;28892;55.640;37.532;2023-04-16T10:37:30;100113.41;;;14.88;15.88
43298;BME280;28892;55.640;37.532;2023-04-16T10:39:57;100109.91;;;15.53;15.97
43298;BME280;28892;55.640;37.532;2023-04-16T10:42:24;100119.66;;;15.89;15.53
43298;BME280;28892;55.640;37.532;2023-04-16T10:44:50;100113.25;;;17.16;15.20
43298;BME280;28892;55.640;37.532;2023-04-16T10:50:55;100117.38;;;18.27;14.55
43298;BME280;28892;55.640;37.532;2023-04-16T10:58:30;100106.16;;;15.04;14.67
43298;BME280;28892;55.640;37.532;2023-04-16T11:01:00;100104.53;;;16.39;14.84
43298;BME280;28892;55.640;37.532;2023-04-16T11:03:30;100095.16;;;16.14;14.53
43298;BME280;28892;55.640;37.532;2023-04-16T11:06:22;100116.69;;;15.77;15.17
43298;BME280;28892;55.640;37.532;2023-04-16T11:08:52;100099.53;;;16.71;15.42
43298;BME280;28892;55.640;37.532;2023-04-16T11:11:19;100087.31;;;17.24;14.60
43298;BME280;28892;55.640;37.532;2023-04-16T11:13:45;100088.03;;;15.71;15.39
43298;BME280;28892;55.640;37.532;2023-04-16T11:16:13;100079.31;;;14.90;16.00
43298;BME280;28892;55.640;37.532;2023-04-16T11:18:40;100077.91;;;14.94;15.84
43298;BME280;28892;55.640;37.532;2023-04-16T11:21:08;100089.09;;;16.41;15.42
43298;BME280;28892;55.640;37.532;2023-04-16T11:23:50;100090.19;;;17.69;14.28
43298;BME280;28892;55.640;37.532;2023-04-16T11:26:22;100094.06;;;17.87;14.16
43298;BME280;28892;55.640;37.532;2023-04-16T11:28:54;100081.28;;;18.09;14.23
43298;BME280;28892;55.640;37.532;2023-04-16T11:31:22;100055.13;;;17.37;14.24
43298;BME280;28892;55.640;37.532;2023-04-16T11:33:51;100061.09;;;17.12;14.96
43298;BME280;28892;55.640;37.532;2023-04-16T11:36:21;100062.06;;;16.98;14.56
43298;BME280;28892;55.640;37.532;2023-04-16T11:38:47;100072.78;;;16.36;15.39
43298;BME280;28892;55.640;37.532;2023-04-16T11:41:18;100052.41;;;15.92;15.36
43298;BME280;28892;55.640;37.532;2023-04-16T11:43:47;100061.63;;;16.94;14.83
43298;BME280;28892;55.640;37.532;2023-04-16T11:46:41;100078.19;;;17.04;14.92
43298;BME280;28892;55.640;37.532;2023-04-16T11:49:47;100059.47;;;17.25;14.41
43298;BME280;28892;55.640;37.532;2023-04-16T11:52:32;100067.00;;;18.15;14.44
43298;BME280;28892;55.640;37.532;2023-04-16T11:54:58;100054.34;;;19.07;13.73
43298;BME280;28892;55.640;37.532;2023-04-16T11:57:29;100059.97;;;18.21;14.46
43298;BME280;28892;55.640;37.532;2023-04-16T11:59:56;100044.66;;;19.06;13.84
43298;BME280;28892;55.640;37.532;2023-04-16T12:02:43;100031.63;;;19.79;13.53
43298;BME280;28892;55.640;37.532;2023-04-16T12:05:32;100037.88;;;19.04;13.70
43298;BME280;28892;55.640;37.532;2023-04-16T12:08:28;100035.88;;;17.81;14.33
43298;BME280;28892;55.640;37.532;2023-04-16T12:10:57;100051.34;;;18.51;13.50
43298;BME280;28892;55.640;37.532;2023-04-16T12:13:26;100030.06;;;17.91;13.92
43298;BME280;28892;55.640;37.532;2023-04-16T12:15:54;100024.13;;;16.87;14.57
43298;BME280;28892;55.640;37.532;2023-04-16T12:18:22;100029.72;;;16.99;14.69
43298;BME280;28892;55.640;37.532;2023-04-16T12:20:49;100046.59;;;16.93;15.30
43298;BME280;28892;55.640;37.532;2023-04-16T12:23:29;100024.53;;;16.91;15.38
43298;BME280;28892;55.640;37.532;2023-04-16T12:25:56;100049.31;;;17.54;14.34
43298;BME280;28892;55.640;37.532;2023-04-16T12:28:31;100035.88;;;17.81;14.37
43298;BME280;28892;55.640;37.532;2023-04-16T12:30:57;100024.28;;;16.66;14.65
43298;BME280;28892;55.640;37.532;2023-04-16T12:33:23;100022.22;;;16.05;15.61
43298;BME280;28892;55.640;37.532;2023-04-16T12:35:50;100003.56;;;17.01;15.02
43298;BME280;28892;55.640;37.532;2023-04-16T12:38:16;100010.19;;;17.12;14.59
43298;BME280;28892;55.640;37.532;2023-04-16T12:40:42;100004.19;;;17.03;14.98
43298;BME280;28892;55.640;37.532;2023-04-16T12:43:08;100014.69;;;17.18;14.42
43298;BME280;28892;55.640;37.532;2023-04-16T12:45:38;99995.50;;;16.95;14.47
43298;BME280;28892;55.640;37.532;2023-04-16T12:48:04;99999.56;;;16.64;14.87
43298;BME280;28892;55.640;37.532;2023-04-16T12:50:30;99997.50;;;16.03;15.20
43298;BME280;28892;55.640;37.532;2023-04-16T12:52:57;99994.97;;;15.88;15.15
43298;BME280;28892;55.640;37.532;2023-04-16T12:55:24;99999.09;;;15.91;15.45
43298;BME280;28892;55.640;37.532;2023-04-16T12:57:50;100000.69;;;16.20;14.98
43298;BME280;28892;55.640;37.532;2023-04-16T13:00:18;99986.59;;;16.05;15.39
43298;BME280;28892;55.640;37.532;2023-04-16T13:02:47;99981.53;;;15.82;15.29
43298;BME280;28892;55.640;37.532;2023-04-16T13:05:20;99975.25;;;15.96;15.62
43298;BME280;28892;55.640;37.532;2023-04-16T13:07:46;99976.34;;;15.73;16.02
43298;BME280;28892;55.640;37.532;2023-04-16T13:10:12;99975.25;;;15.04;15.94
43298;BME280;28892;55.640;37.532;2023-04-16T13:12:38;99981.56;;;15.25;16.24
43298;BME280;28892;55.640;37.532;2023-04-16T13:15:04;99976.88;;;15.27;16.26